sensor_id;sensor_type;location;lat;lon;timestamp;P1;durP1;ratioP1;P2;durP2;ratioP2
64297;SDS011;50639;53.270;7.956;2023-01-19T00:00:08;17.33;;;8.57;;
64297;SDS011;50639;53.270;7.956;2023-01-19T00:02:35;15.77;;;8.60;;
64297;SDS011;50639;53.270;7.956;2023-01-19T00:05:02;18.20;;;9.05;;
64297;SDS011;50639;53.270;7.956;2023-01-19T00:07:29;16.33;;;10.30;;
64297;SDS011;50639;53.270;7.956;2023-01-19T00:09:55;13.27;;;7.88;;
64297;SDS011;50639;53.270;7.956;2023-01-19T00:12:20;18.88;;;8.90;;
64297;SDS011;50639;53.270;7.956;2023-01-19T00:14:46;15.73;;;7.70;;
64297;SDS011;50639;53.270;7.956;2023-01-19T00:17:11;17.60;;;9.10;;
64297;SDS011;50639;53.270;7.956;2023-01-19T00:19:37;11.93;;;7.88;;
64297;SDS011;50639;53.270;7.956;2023-01-19T00:22:02;15.02;;;8.23;;
64297;SDS011;50639;53.270;7.956;2023-01-19T00:24:30;13.45;;;8.95;;
64297;SDS011;50639;53.270;7.956;2023-01-19T00:26:56;13.90;;;8.55;;
64297;SDS011;50639;53.270;7.956;2023-01-19T00:29:22;13.30;;;9.13;;
64297;SDS011;50639;53.270;7.956;2023-01-19T00:31:48;18.83;;;9.93;;
64297;SDS011;50639;53.270;7.956;2023-01-19T00:34:13;12.60;;;7.60;;
64297;SDS011;50639;53.270;7.956;2023-01-19T00:36:39;12.98;;;8.73;;
64297;SDS011;50639;53.270;7.956;2023-01-19T00:39:05;17.77;;;9.50;;
64297;SDS011;50639;53.270;7.956;2023-01-19T00:41:31;14.35;;;8.85;;
64297;SDS011;50639;53.270;7.956;2023-01-19T00:44:15;16.98;;;9.73;;
64297;SDS011;50639;53.270;7.956;2023-01-19T00:46:40;17.65;;;8.77;;
64297;SDS011;50639;53.270;7.956;2023-01-19T00:49:06;14.90;;;8.93;;
64297;SDS011;50639;53.270;7.956;2023-01-19T00:51:31;16.48;;;8.20;;
64297;SDS011;50639;53.270;7.956;2023-01-19T00:53:57;12.98;;;8.15;;
64297;SDS011;50639;53.270;7.956;2023-01-19T00:56:29;11.77;;;8.13;;
64297;SDS011;50639;53.270;7.956;2023-01-19T00:58:55;15.55;;;8.70;;
64297;SDS011;50639;53.270;7.956;2023-01-19T01:01:20;14.00;;;8.48;;
64297;SDS011;50639;53.270;7.956;2023-01-19T01:03:46;14.63;;;8.55;;
64297;SDS011;50639;53.270;7.956;2023-01-19T01:06:11;11.77;;;8.02;;
64297;SDS011;50639;53.270;7.956;2023-01-19T01:08:37;15.93;;;8.82;;
64297;SDS011;50639;53.270;7.956;2023-01-19T01:11:02;17.15;;;9.65;;
64297;SDS011;50639;53.270;7.956;2023-01-19T01:13:28;14.77;;;9.52;;
64297;SDS011;50639;53.270;7.956;2023-01-19T01:15:53;13.13;;;8.88;;
64297;SDS011;50639;53.270;7.956;2023-01-19T01:18:20;15.63;;;9.40;;
64297;SDS011;50639;53.270;7.956;2023-01-19T01:20:46;12.23;;;8.80;;
64297;SDS011;50639;53.270;7.956;2023-01-19T01:23:12;14.88;;;9.48;;
64297;SDS011;50639;53.270;7.956;2023-01-19T01:25:37;11.93;;;8.18;;
64297;SDS011;50639;53.270;7.956;2023-01-19T01:28:06;17.25;;;9.63;;
64297;SDS011;50639;53.270;7.956;2023-01-19T01:30:33;14.50;;;9.63;;
64297;SDS011;50639;53.270;7.956;2023-01-19T01:32:59;11.98;;;8.15;;
64297;SDS011;50639;53.270;7.956;2023-01-19T01:35:24;14.13;;;8.88;;
64297;SDS011;50639;53.270;7.956;2023-01-19T01:37:50;15.93;;;9.35;;
64297;SDS011;50639;53.270;7.956;2023-01-19T01:40:16;13.43;;;8.90;;
64297;SDS011;50639;53.270;7.956;2023-01-19T01:42:43;13.68;;;9.75;;
64297;SDS011;50639;53.270;7.956;2023-01-19T01:48:01;13.60;;;9.43;;
64297;SDS011;50639;53.270;7.956;2023-01-19T01:50:33;13.05;;;8.70;;
64297;SDS011;50639;53.270;7.956;2023-01-19T01:53:03;11.98;;;8.55;;
64297;SDS011;50639;53.270;7.956;2023-01-19T01:55:32;15.57;;;8.98;;
64297;SDS011;50639;53.270;7.956;2023-01-19T01:58:06;12.35;;;7.85;;
64297;SDS011;50639;53.270;7.956;2023-01-19T02:00:34;12.82;;;7.75;;
64297;SDS011;50639;53.270;7.956;2023-01-19T02:03:19;10.82;;;7.93;;
64297;SDS011;50639;53.270;7.956;2023-01-19T02:05:46;12.63;;;7.75;;
64297;SDS011;50639;53.270;7.956;2023-01-19T02:08:14;11.50;;;7.50;;
64297;SDS011;50639;53.270;7.956;2023-01-19T02:11:02;10.63;;;7.15;;
64297;SDS011;50639;53.270;7.956;2023-01-19T02:13:46;13.10;;;7.25;;
64297;SDS011;50639;53.270;7.956;2023-01-19T02:16:13;11.68;;;7.32;;
64297;SDS011;50639;53.270;7.956;2023-01-19T02:18:39;9.07;;;7.03;;
64297;SDS011;50639;53.270;7.956;2023-01-19T02:21:10;12.45;;;8.48;;
64297;SDS011;50639;53.270;7.956;2023-01-19T02:23:52;9.00;;;6.05;;
64297;SDS011;50639;53.270;7.956;2023-01-19T02:26:24;10.60;;;7.07;;
64297;SDS011;50639;53.270;7.956;2023-01-19T02:28:56;8.52;;;5.63;;
64297;SDS011;50639;53.270;7.956;2023-01-19T02:31:23;8.30;;;5.88;;
64297;SDS011;50639;53.270;7.956;2023-01-19T02:33:50;7.80;;;5.13;;
64297;SDS011;50639;53.270;7.956;2023-01-19T02:36:16;8.50;;;6.40;;
64297;SDS011;50639;53.270;7.956;2023-01-19T02:38:46;10.25;;;6.55;;
64297;SDS011;50639;53.270;7.956;2023-01-19T02:41:14;9.70;;;6.70;;
64297;SDS011;50639;53.270;7.956;2023-01-19T02:43:44;9.13;;;6.35;;
64297;SDS011;50639;53.270;7.956;2023-01-19T02:46:12;8.65;;;6.45;;
64297;SDS011;50639;53.270;7.956;2023-01-19T02:48:38;10.82;;;7.00;;
64297;SDS011;50639;53.270;7.956;2023-01-19T02:51:13;9.10;;;6.82;;
64297;SDS011;50639;53.270;7.956;2023-01-19T03:04:57;10.65;;;7.93;;
64297;SDS011;50639;53.270;7.956;2023-01-19T03:15:49;11.48;;;7.45;;
64297;SDS011;50639;53.270;7.956;2023-01-19T03:18:19;12.50;;;8.45;;
64297;SDS011;50639;53.270;7.956;2023-01-19T03:20:49;10.60;;;8.27;;
64297;SDS011;50639;53.270;7.956;2023-01-19T03:23:17;12.23;;;10.05;;
64297;SDS011;50639;53.270;7.956;2023-01-19T03:25:45;12.02;;;8.88;;
64297;SDS011;50639;53.270;7.956;2023-01-19T03:30:41;11.85;;;9.02;;
64297;SDS011;50639;53.270;7.956;2023-01-19T03:33:19;11.43;;;9.30;;
64297;SDS011;50639;53.270;7.956;2023-01-19T03:35:53;13.13;;;9.73;;
64297;SDS011;50639;53.270;7.956;2023-01-19T03:38:28;13.32;;;9.68;;
64297;SDS011;50639;53.270;7.956;2023-01-19T03:40:59;13.77;;;10.13;;
64297;SDS011;50639;53.270;7.956;2023-01-19T03:43:27;13.13;;;10.90;;
64297;SDS011;50639;53.270;7.956;2023-01-19T03:45:55;13.07;;;11.27;;
64297;SDS011;50639;53.270;7.956;2023-01-19T03:48:21;13.75;;;10.85;;
64297;SDS011;50639;53.270;7.956;2023-01-19T03:50:47;14.68;;;11.15;;
64297;SDS011;50639;53.270;7.956;2023-01-19T03:53:14;13.23;;;10.95;;
64297;SDS011;50639;53.270;7.956;2023-01-19T03:55:42;14.02;;;11.18;;
64297;SDS011;50639;53.270;7.956;2023-01-19T03:58:09;13.02;;;10.38;;
64297;SDS011;50639;53.270;7.956;2023-01-19T04:00:35;12.57;;;10.07;;
64297;SDS011;50639;53.270;7.956;2023-01-19T04:03:04;13.63;;;9.90;;
64297;SDS011;50639;53.270;7.956;2023-01-19T04:05:30;10.98;;;8.18;;
64297;SDS011;50639;53.270;7.956;2023-01-19T04:07:56;11.70;;;9.27;;
64297;SDS011;50639;53.270;7.956;2023-01-19T04:10:22;13.73;;;9.30;;
64297;SDS011;50639;53.270;7.956;2023-01-19T04:12:47;13.60;;;11.13;;
64297;SDS011;50639;53.270;7.956;2023-01-19T04:15:13;14.25;;;10.20;;
64297;SDS011;50639;53.270;7.956;2023-01-19T04:17:39;14.10;;;10.55;;
64297;SDS011;50639;53.270;7.956;2023-01-19T04:20:06;13.02;;;10.70;;
64297;SDS011;50639;53.270;7.956;2023-01-19T04:22:32;13.38;;;11.30;;
64297;SDS011;50639;53.270;7.956;2023-01-19T04:24:58;14.63;;;10.20;;
64297;SDS011;50639;53.270;7.956;2023-01-19T04:27:23;13.65;;;11.07;;
64297;SDS011;50639;53.270;7.956;2023-01-19T04:29:50;13.35;;;10.40;;
64297;SDS011;50639;53.270;7.956;2023-01-19T04:32:16;12.23;;;10.48;;
64297;SDS011;50639;53.270;7.956;2023-01-19T04:34:41;13.30;;;10.48;;
64297;SDS011;50639;53.270;7.956;2023-01-19T04:37:07;15.23;;;10.70;;
64297;SDS011;50639;53.270;7.956;2023-01-19T04:39:33;15.18;;;11.68;;
64297;SDS011;50639;53.270;7.956;2023-01-19T04:41:58;13.27;;;11.20;;
64297;SDS011;50639;53.270;7.956;2023-01-19T04:44:25;13.07;;;9.88;;
64297;SDS011;50639;53.270;7.956;2023-01-19T04:46:51;15.85;;;12.82;;
64297;SDS011;50639;53.270;7.956;2023-01-19T04:49:17;19.73;;;14.70;;
64297;SDS011;50639;53.270;7.956;2023-01-19T04:51:42;15.75;;;12.27;;
64297;SDS011;50639;53.270;7.956;2023-01-19T04:54:08;16.42;;;12.63;;
64297;SDS011;50639;53.270;7.956;2023-01-19T04:56:34;14.77;;;12.63;;
64297;SDS011;50639;53.270;7.956;2023-01-19T04:59:00;17.02;;;13.13;;
64297;SDS011;50639;53.270;7.956;2023-01-19T05:01:26;17.67;;;13.48;;
64297;SDS011;50639;53.270;7.956;2023-01-19T05:03:51;14.25;;;12.18;;
64297;SDS011;50639;53.270;7.956;2023-01-19T05:06:17;14.05;;;10.30;;
64297;SDS011;50639;53.270;7.956;2023-01-19T05:08:42;15.18;;;12.32;;
64297;SDS011;50639;53.270;7.956;2023-01-19T05:11:08;16.23;;;12.45;;
64297;SDS011;50639;53.270;7.956;2023-01-19T05:13:33;15.43;;;12.70;;
64297;SDS011;50639;53.270;7.956;2023-01-19T05:15:59;13.65;;;10.13;;
64297;SDS011;50639;53.270;7.956;2023-01-19T05:18:25;14.52;;;11.38;;
64297;SDS011;50639;53.270;7.956;2023-01-19T05:20:50;14.27;;;12.35;;
64297;SDS011;50639;53.270;7.956;2023-01-19T05:23:16;14.43;;;12.75;;
64297;SDS011;50639;53.270;7.956;2023-01-19T05:25:42;13.70;;;11.50;;
64297;SDS011;50639;53.270;7.956;2023-01-19T05:28:08;14.70;;;12.47;;
64297;SDS011;50639;53.270;7.956;2023-01-19T05:30:34;15.88;;;11.07;;
64297;SDS011;50639;53.270;7.956;2023-01-19T05:33:00;18.55;;;13.93;;
64297;SDS011;50639;53.270;7.956;2023-01-19T05:35:26;15.20;;;11.68;;
64297;SDS011;50639;53.270;7.956;2023-01-19T05:37:51;14.88;;;11.27;;
64297;SDS011;50639;53.270;7.956;2023-01-19T05:40:17;15.35;;;12.32;;
64297;SDS011;50639;53.270;7.956;2023-01-19T05:42:42;18.48;;;13.88;;
64297;SDS011;50639;53.270;7.956;2023-01-19T05:45:08;18.77;;;15.40;;
64297;SDS011;50639;53.270;7.956;2023-01-19T05:47:33;20.15;;;14.10;;
64297;SDS011;50639;53.270;7.956;2023-01-19T05:49:59;18.65;;;13.73;;
64297;SDS011;50639;53.270;7.956;2023-01-19T05:52:24;16.58;;;14.27;;
64297;SDS011;50639;53.270;7.956;2023-01-19T05:54:50;18.77;;;14.80;;
64297;SDS011;50639;53.270;7.956;2023-01-19T05:57:16;18.85;;;15.25;;
64297;SDS011;50639;53.270;7.956;2023-01-19T05:59:42;19.63;;;14.73;;
64297;SDS011;50639;53.270;7.956;2023-01-19T06:02:08;15.45;;;11.90;;
64297;SDS011;50639;53.270;7.956;2023-01-19T06:04:34;19.23;;;13.60;;
64297;SDS011;50639;53.270;7.956;2023-01-19T06:06:59;20.85;;;15.48;;
64297;SDS011;50639;53.270;7.956;2023-01-19T06:09:26;19.27;;;14.60;;
64297;SDS011;50639;53.270;7.956;2023-01-19T06:11:52;16.58;;;12.75;;
64297;SDS011;50639;53.270;7.956;2023-01-19T06:14:19;17.58;;;13.90;;
64297;SDS011;50639;53.270;7.956;2023-01-19T06:16:45;16.90;;;14.32;;
64297;SDS011;50639;53.270;7.956;2023-01-19T06:19:10;15.63;;;12.85;;
64297;SDS011;50639;53.270;7.956;2023-01-19T06:21:35;18.50;;;13.45;;
64297;SDS011;50639;53.270;7.956;2023-01-19T06:24:01;19.52;;;14.52;;
64297;SDS011;50639;53.270;7.956;2023-01-19T06:26:27;18.90;;;15.55;;
64297;SDS011;50639;53.270;7.956;2023-01-19T06:28:53;18.92;;;14.32;;
64297;SDS011;50639;53.270;7.956;2023-01-19T06:31:19;18.05;;;16.08;;
64297;SDS011;50639;53.270;7.956;2023-01-19T06:33:44;20.33;;;15.50;;
64297;SDS011;50639;53.270;7.956;2023-01-19T06:36:10;16.05;;;12.10;;
64297;SDS011;50639;53.270;7.956;2023-01-19T06:38:36;19.20;;;14.30;;
64297;SDS011;50639;53.270;7.956;2023-01-19T06:41:01;17.42;;;13.90;;
64297;SDS011;50639;53.270;7.956;2023-01-19T06:43:27;16.10;;;14.27;;
64297;SDS011;50639;53.270;7.956;2023-01-19T06:45:53;16.17;;;13.88;;
64297;SDS011;50639;53.270;7.956;2023-01-19T06:50:51;15.75;;;12.57;;
64297;SDS011;50639;53.270;7.956;2023-01-19T06:53:17;14.80;;;13.23;;
64297;SDS011;50639;53.270;7.956;2023-01-19T06:55:44;15.70;;;11.23;;
64297;SDS011;50639;53.270;7.956;2023-01-19T06:58:10;17.92;;;12.82;;
64297;SDS011;50639;53.270;7.956;2023-01-19T07:00:36;16.73;;;14.00;;
64297;SDS011;50639;53.270;7.956;2023-01-19T07:03:04;13.60;;;11.25;;
64297;SDS011;50639;53.270;7.956;2023-01-19T07:05:32;14.13;;;11.15;;
64297;SDS011;50639;53.270;7.956;2023-01-19T07:07:59;20.38;;;14.43;;
64297;SDS011;50639;53.270;7.956;2023-01-19T07:10:25;18.33;;;14.18;;
64297;SDS011;50639;53.270;7.956;2023-01-19T07:12:50;15.63;;;13.88;;
64297;SDS011;50639;53.270;7.956;2023-01-19T07:15:16;16.83;;;13.73;;
64297;SDS011;50639;53.270;7.956;2023-01-19T07:17:44;17.05;;;13.30;;
64297;SDS011;50639;53.270;7.956;2023-01-19T07:20:10;15.02;;;13.40;;
64297;SDS011;50639;53.270;7.956;2023-01-19T07:22:38;14.05;;;10.30;;
64297;SDS011;50639;53.270;7.956;2023-01-19T07:25:05;18.02;;;14.30;;
64297;SDS011;50639;53.270;7.956;2023-01-19T07:27:31;15.68;;;11.82;;
64297;SDS011;50639;53.270;7.956;2023-01-19T07:29:57;16.13;;;12.40;;
64297;SDS011;50639;53.270;7.956;2023-01-19T07:32:25;18.35;;;12.95;;
64297;SDS011;50639;53.270;7.956;2023-01-19T07:34:51;17.85;;;11.75;;
64297;SDS011;50639;53.270;7.956;2023-01-19T07:37:16;16.88;;;13.43;;
64297;SDS011;50639;53.270;7.956;2023-01-19T07:39:42;15.95;;;11.68;;
64297;SDS011;50639;53.270;7.956;2023-01-19T07:42:07;16.45;;;12.48;;
64297;SDS011;50639;53.270;7.956;2023-01-19T07:44:34;19.13;;;14.05;;
64297;SDS011;50639;53.270;7.956;2023-01-19T07:47:01;16.95;;;11.95;;
64297;SDS011;50639;53.270;7.956;2023-01-19T07:49:27;18.17;;;14.73;;
64297;SDS011;50639;53.270;7.956;2023-01-19T07:51:52;14.25;;;11.60;;
64297;SDS011;50639;53.270;7.956;2023-01-19T07:54:20;17.02;;;12.85;;
64297;SDS011;50639;53.270;7.956;2023-01-19T07:56:46;15.20;;;12.75;;
64297;SDS011;50639;53.270;7.956;2023-01-19T07:59:11;15.35;;;11.15;;
64297;SDS011;50639;53.270;7.956;2023-01-19T08:01:37;12.85;;;9.18;;
64297;SDS011;50639;53.270;7.956;2023-01-19T08:04:02;15.60;;;11.18;;
64297;SDS011;50639;53.270;7.956;2023-01-19T08:06:34;14.00;;;11.65;;
64297;SDS011;50639;53.270;7.956;2023-01-19T08:09:02;16.17;;;12.70;;
64297;SDS011;50639;53.270;7.956;2023-01-19T08:11:29;15.05;;;11.02;;
64297;SDS011;50639;53.270;7.956;2023-01-19T08:13:55;18.50;;;12.68;;
64297;SDS011;50639;53.270;7.956;2023-01-19T08:16:21;16.48;;;11.95;;
64297;SDS011;50639;53.270;7.956;2023-01-19T08:18:47;15.85;;;12.75;;
64297;SDS011;50639;53.270;7.956;2023-01-19T08:21:12;15.25;;;11.82;;
64297;SDS011;50639;53.270;7.956;2023-01-19T08:23:37;16.40;;;12.68;;
64297;SDS011;50639;53.270;7.956;2023-01-19T08:26:25;14.02;;;10.88;;
64297;SDS011;50639;53.270;7.956;2023-01-19T08:28:53;17.23;;;10.32;;
64297;SDS011;50639;53.270;7.956;2023-01-19T08:31:19;13.20;;;10.18;;
64297;SDS011;50639;53.270;7.956;2023-01-19T08:33:45;12.88;;;10.07;;
64297;SDS011;50639;53.270;7.956;2023-01-19T08:36:10;14.63;;;11.23;;
64297;SDS011;50639;53.270;7.956;2023-01-19T08:38:36;12.02;;;8.98;;
64297;SDS011;50639;53.270;7.956;2023-01-19T08:41:04;16.67;;;10.52;;
64297;SDS011;50639;53.270;7.956;2023-01-19T08:43:30;13.13;;;10.20;;
64297;SDS011;50639;53.270;7.956;2023-01-19T08:45:55;12.43;;;8.80;;
64297;SDS011;50639;53.270;7.956;2023-01-19T08:48:21;11.15;;;7.97;;
64297;SDS011;50639;53.270;7.956;2023-01-19T08:50:48;18.30;;;10.15;;
64297;SDS011;50639;53.270;7.956;2023-01-19T08:53:14;13.93;;;8.90;;
64297;SDS011;50639;53.270;7.956;2023-01-19T08:55:40;12.48;;;8.45;;
64297;SDS011;50639;53.270;7.956;2023-01-19T08:58:06;12.95;;;9.93;;
64297;SDS011;50639;53.270;7.956;2023-01-19T09:00:33;11.37;;;9.00;;
64297;SDS011;50639;53.270;7.956;2023-01-19T09:02:59;12.93;;;8.37;;
64297;SDS011;50639;53.270;7.956;2023-01-19T09:05:28;13.10;;;8.68;;
64297;SDS011;50639;53.270;7.956;2023-01-19T09:08:04;11.73;;;7.55;;
64297;SDS011;50639;53.270;7.956;2023-01-19T09:10:34;9.77;;;6.18;;
64297;SDS011;50639;53.270;7.956;2023-01-19T09:13:02;12.50;;;7.10;;
64297;SDS011;50639;53.270;7.956;2023-01-19T09:15:29;12.55;;;7.63;;
64297;SDS011;50639;53.270;7.956;2023-01-19T09:17:58;10.25;;;6.50;;
64297;SDS011;50639;53.270;7.956;2023-01-19T09:20:24;9.20;;;6.22;;
64297;SDS011;50639;53.270;7.956;2023-01-19T09:22:49;12.77;;;6.10;;
64297;SDS011;50639;53.270;7.956;2023-01-19T09:25:14;12.13;;;6.88;;
64297;SDS011;50639;53.270;7.956;2023-01-19T09:27:40;8.68;;;5.50;;
64297;SDS011;50639;53.270;7.956;2023-01-19T09:30:06;11.88;;;5.60;;
64297;SDS011;50639;53.270;7.956;2023-01-19T09:32:37;10.93;;;4.60;;
64297;SDS011;50639;53.270;7.956;2023-01-19T09:35:02;12.68;;;5.45;;
64297;SDS011;50639;53.270;7.956;2023-01-19T09:37:28;8.90;;;3.97;;
64297;SDS011;50639;53.270;7.956;2023-01-19T09:39:53;8.10;;;3.88;;
64297;SDS011;50639;53.270;7.956;2023-01-19T09:45:09;9.75;;;3.85;;
64297;SDS011;50639;53.270;7.956;2023-01-19T09:47:42;7.82;;;3.35;;
64297;SDS011;50639;53.270;7.956;2023-01-19T09:50:14;6.25;;;2.80;;
64297;SDS011;50639;53.270;7.956;2023-01-19T09:52:46;6.85;;;2.75;;
64297;SDS011;50639;53.270;7.956;2023-01-19T09:55:24;10.85;;;2.90;;
64297;SDS011;50639;53.270;7.956;2023-01-19T09:57:52;10.35;;;2.97;;
64297;SDS011;50639;53.270;7.956;2023-01-19T10:00:18;8.88;;;2.60;;
64297;SDS011;50639;53.270;7.956;2023-01-19T10:02:48;11.65;;;2.55;;
64297;SDS011;50639;53.270;7.956;2023-01-19T10:05:30;8.77;;;2.08;;
64297;SDS011;50639;53.270;7.956;2023-01-19T10:10:37;11.50;;;2.35;;
64297;SDS011;50639;53.270;7.956;2023-01-19T10:18:25;12.95;;;2.80;;
64297;SDS011;50639;53.270;7.956;2023-01-19T10:21:01;6.75;;;2.10;;
64297;SDS011;50639;53.270;7.956;2023-01-19T10:26:39;8.73;;;2.30;;
64297;SDS011;50639;53.270;7.956;2023-01-19T10:32:13;6.50;;;2.10;;
64297;SDS011;50639;53.270;7.956;2023-01-19T10:34:45;12.35;;;2.25;;
64297;SDS011;50639;53.270;7.956;2023-01-19T10:39:41;12.57;;;3.00;;
64297;SDS011;50639;53.270;7.956;2023-01-19T10:42:11;13.02;;;2.53;;
64297;SDS011;50639;53.270;7.956;2023-01-19T10:44:39;13.10;;;2.83;;
64297;SDS011;50639;53.270;7.956;2023-01-19T10:47:05;9.93;;;2.38;;
64297;SDS011;50639;53.270;7.956;2023-01-19T10:49:41;10.23;;;2.30;;
64297;SDS011;50639;53.270;7.956;2023-01-19T10:52:10;10.95;;;2.50;;
64297;SDS011;50639;53.270;7.956;2023-01-19T10:54:43;15.00;;;3.10;;
64297;SDS011;50639;53.270;7.956;2023-01-19T10:57:08;11.07;;;2.45;;
64297;SDS011;50639;53.270;7.956;2023-01-19T11:04:39;9.55;;;2.50;;
64297;SDS011;50639;53.270;7.956;2023-01-19T11:07:13;13.27;;;2.65;;
64297;SDS011;50639;53.270;7.956;2023-01-19T11:09:42;9.40;;;2.83;;
64297;SDS011;50639;53.270;7.956;2023-01-19T11:12:18;14.38;;;3.15;;
64297;SDS011;50639;53.270;7.956;2023-01-19T11:14:48;8.02;;;2.45;;
64297;SDS011;50639;53.270;7.956;2023-01-19T11:19:58;10.50;;;2.25;;
64297;SDS011;50639;53.270;7.956;2023-01-19T11:22:33;10.27;;;2.70;;
64297;SDS011;50639;53.270;7.956;2023-01-19T11:25:02;7.75;;;2.25;;
64297;SDS011;50639;53.270;7.956;2023-01-19T11:27:30;14.60;;;3.38;;
64297;SDS011;50639;53.270;7.956;2023-01-19T11:32:43;13.02;;;2.78;;
64297;SDS011;50639;53.270;7.956;2023-01-19T11:35:31;12.85;;;2.85;;
64297;SDS011;50639;53.270;7.956;2023-01-19T11:38:19;13.10;;;3.38;;
64297;SDS011;50639;53.270;7.956;2023-01-19T11:40:51;13.38;;;2.67;;
64297;SDS011;50639;53.270;7.956;2023-01-19T11:43:20;16.35;;;3.20;;
64297;SDS011;50639;53.270;7.956;2023-01-19T11:45:48;8.57;;;2.90;;
64297;SDS011;50639;53.270;7.956;2023-01-19T11:48:28;13.50;;;3.00;;
64297;SDS011;50639;53.270;7.956;2023-01-19T11:50:58;12.68;;;3.03;;
64297;SDS011;50639;53.270;7.956;2023-01-19T11:53:28;17.52;;;3.55;;
64297;SDS011;50639;53.270;7.956;2023-01-19T11:56:08;17.55;;;2.88;;
64297;SDS011;50639;53.270;7.956;2023-01-19T12:01:08;11.23;;;2.83;;
64297;SDS011;50639;53.270;7.956;2023-01-19T12:03:47;20.48;;;3.42;;
64297;SDS011;50639;53.270;7.956;2023-01-19T12:06:19;13.35;;;2.80;;
64297;SDS011;50639;53.270;7.956;2023-01-19T12:08:54;16.13;;;2.90;;
64297;SDS011;50639;53.270;7.956;2023-01-19T12:11:31;12.52;;;2.67;;
64297;SDS011;50639;53.270;7.956;2023-01-19T12:13:59;18.67;;;3.13;;
64297;SDS011;50639;53.270;7.956;2023-01-19T12:16:27;19.60;;;3.90;;
64297;SDS011;50639;53.270;7.956;2023-01-19T12:19:01;17.83;;;3.47;;
64297;SDS011;50639;53.270;7.956;2023-01-19T12:21:29;12.95;;;2.90;;
64297;SDS011;50639;53.270;7.956;2023-01-19T12:26:50;9.20;;;2.67;;
64297;SDS011;50639;53.270;7.956;2023-01-19T12:29:17;15.23;;;3.25;;
64297;SDS011;50639;53.270;7.956;2023-01-19T12:31:50;10.90;;;2.50;;
64297;SDS011;50639;53.270;7.956;2023-01-19T12:34:40;15.68;;;2.80;;
64297;SDS011;50639;53.270;7.956;2023-01-19T12:37:40;16.58;;;3.10;;
64297;SDS011;50639;53.270;7.956;2023-01-19T12:40:21;11.20;;;3.25;;
64297;SDS011;50639;53.270;7.956;2023-01-19T12:43:12;13.00;;;2.67;;
64297;SDS011;50639;53.270;7.956;2023-01-19T12:45:40;11.18;;;2.70;;
64297;SDS011;50639;53.270;7.956;2023-01-19T12:48:09;17.45;;;2.80;;
64297;SDS011;50639;53.270;7.956;2023-01-19T12:50:48;10.05;;;2.50;;
64297;SDS011;50639;53.270;7.956;2023-01-19T12:53:14;14.50;;;2.80;;
64297;SDS011;50639;53.270;7.956;2023-01-19T12:55:42;13.15;;;2.67;;
64297;SDS011;50639;53.270;7.956;2023-01-19T12:58:20;14.52;;;2.78;;
64297;SDS011;50639;53.270;7.956;2023-01-19T13:00:49;8.93;;;2.53;;
64297;SDS011;50639;53.270;7.956;2023-01-19T13:06:39;10.63;;;2.35;;
64297;SDS011;50639;53.270;7.956;2023-01-19T13:09:34;8.98;;;2.80;;
64297;SDS011;50639;53.270;7.956;2023-01-19T13:12:10;10.55;;;2.60;;
64297;SDS011;50639;53.270;7.956;2023-01-19T13:14:43;15.52;;;2.90;;
64297;SDS011;50639;53.270;7.956;2023-01-19T13:17:29;10.55;;;2.05;;
64297;SDS011;50639;53.270;7.956;2023-01-19T13:20:13;11.25;;;2.63;;
64297;SDS011;50639;53.270;7.956;2023-01-19T13:25:13;12.40;;;2.65;;
64297;SDS011;50639;53.270;7.956;2023-01-19T13:27:50;11.32;;;2.67;;
64297;SDS011;50639;53.270;7.956;2023-01-19T13:30:16;13.45;;;2.97;;
64297;SDS011;50639;53.270;7.956;2023-01-19T13:32:46;12.52;;;3.00;;
64297;SDS011;50639;53.270;7.956;2023-01-19T13:35:16;11.38;;;2.38;;
64297;SDS011;50639;53.270;7.956;2023-01-19T13:37:44;9.82;;;2.75;;
64297;SDS011;50639;53.270;7.956;2023-01-19T13:40:20;15.57;;;2.08;;
64297;SDS011;50639;53.270;7.956;2023-01-19T13:42:48;7.95;;;2.20;;
64297;SDS011;50639;53.270;7.956;2023-01-19T13:47:48;15.68;;;2.80;;
64297;SDS011;50639;53.270;7.956;2023-01-19T13:52:45;18.90;;;3.17;;
64297;SDS011;50639;53.270;7.956;2023-01-19T13:57:39;12.18;;;2.40;;
64297;SDS011;50639;53.270;7.956;2023-01-19T14:02:52;11.00;;;2.38;;
64297;SDS011;50639;53.270;7.956;2023-01-19T14:05:40;13.75;;;2.63;;
64297;SDS011;50639;53.270;7.956;2023-01-19T14:10:33;8.30;;;2.25;;
64297;SDS011;50639;53.270;7.956;2023-01-19T14:13:01;12.18;;;2.50;;
64297;SDS011;50639;53.270;7.956;2023-01-19T14:15:30;10.63;;;2.63;;
64297;SDS011;50639;53.270;7.956;2023-01-19T14:20:36;15.68;;;3.03;;
64297;SDS011;50639;53.270;7.956;2023-01-19T14:23:02;8.55;;;2.50;;
64297;SDS011;50639;53.270;7.956;2023-01-19T14:25:33;5.20;;;2.15;;
64297;SDS011;50639;53.270;7.956;2023-01-19T14:31:02;15.45;;;2.55;;
64297;SDS011;50639;53.270;7.956;2023-01-19T14:33:43;8.70;;;2.28;;
64297;SDS011;50639;53.270;7.956;2023-01-19T14:38:54;5.63;;;1.85;;
64297;SDS011;50639;53.270;7.956;2023-01-19T14:41:43;8.07;;;2.30;;
64297;SDS011;50639;53.270;7.956;2023-01-19T14:44:16;14.38;;;2.38;;
64297;SDS011;50639;53.270;7.956;2023-01-19T14:46:47;10.52;;;2.60;;
64297;SDS011;50639;53.270;7.956;2023-01-19T14:49:20;10.20;;;2.40;;
64297;SDS011;50639;53.270;7.956;2023-01-19T14:51:53;10.48;;;2.25;;
64297;SDS011;50639;53.270;7.956;2023-01-19T14:54:26;8.95;;;2.25;;
64297;SDS011;50639;53.270;7.956;2023-01-19T14:56:55;11.93;;;2.60;;
64297;SDS011;50639;53.270;7.956;2023-01-19T14:59:21;8.88;;;2.58;;
64297;SDS011;50639;53.270;7.956;2023-01-19T15:01:46;7.57;;;2.00;;
64297;SDS011;50639;53.270;7.956;2023-01-19T15:04:12;10.35;;;2.00;;
64297;SDS011;50639;53.270;7.956;2023-01-19T15:06:40;7.43;;;2.05;;
64297;SDS011;50639;53.270;7.956;2023-01-19T15:09:13;7.57;;;2.17;;
64297;SDS011;50639;53.270;7.956;2023-01-19T15:11:39;9.80;;;2.28;;
64297;SDS011;50639;53.270;7.956;2023-01-19T15:14:05;8.38;;;2.10;;
64297;SDS011;50639;53.270;7.956;2023-01-19T15:16:35;10.10;;;2.15;;
64297;SDS011;50639;53.270;7.956;2023-01-19T15:19:01;9.20;;;2.45;;
64297;SDS011;50639;53.270;7.956;2023-01-19T15:21:27;5.85;;;1.73;;
64297;SDS011;50639;53.270;7.956;2023-01-19T15:23:52;6.20;;;1.83;;
64297;SDS011;50639;53.270;7.956;2023-01-19T15:26:19;10.80;;;2.22;;
64297;SDS011;50639;53.270;7.956;2023-01-19T15:28:47;8.45;;;1.92;;
64297;SDS011;50639;53.270;7.956;2023-01-19T15:31:17;7.30;;;1.85;;
64297;SDS011;50639;53.270;7.956;2023-01-19T15:33:45;9.10;;;2.42;;
64297;SDS011;50639;53.270;7.956;2023-01-19T15:36:18;7.53;;;2.17;;
64297;SDS011;50639;53.270;7.956;2023-01-19T15:38:46;7.30;;;2.55;;
64297;SDS011;50639;53.270;7.956;2023-01-19T15:41:17;14.90;;;2.80;;
64297;SDS011;50639;53.270;7.956;2023-01-19T15:43:54;13.00;;;2.50;;
64297;SDS011;50639;53.270;7.956;2023-01-19T15:46:20;7.38;;;2.42;;
64297;SDS011;50639;53.270;7.956;2023-01-19T15:48:47;11.18;;;2.65;;
64297;SDS011;50639;53.270;7.956;2023-01-19T15:51:18;10.95;;;2.95;;
64297;SDS011;50639;53.270;7.956;2023-01-19T15:53:45;10.13;;;2.80;;
64297;SDS011;50639;53.270;7.956;2023-01-19T15:56:17;10.00;;;2.60;;
64297;SDS011;50639;53.270;7.956;2023-01-19T15:58:44;10.88;;;3.00;;
64297;SDS011;50639;53.270;7.956;2023-01-19T16:01:13;12.80;;;2.83;;
64297;SDS011;50639;53.270;7.956;2023-01-19T16:03:43;14.38;;;3.38;;
64297;SDS011;50639;53.270;7.956;2023-01-19T16:06:08;10.15;;;3.65;;
64297;SDS011;50639;53.270;7.956;2023-01-19T16:08:35;12.43;;;2.63;;
64297;SDS011;50639;53.270;7.956;2023-01-19T16:11:04;8.63;;;2.78;;